sensor_id;sensor_type;location;lat;lon;timestamp;P1;durP1;ratioP1;P2;durP2;ratioP2
76749;SDS011;66447;35.844;14.468;2023-04-01T00:04:04;24.10;;;8.20;;
76749;SDS011;66447;35.844;14.468;2023-04-01T00:19:05;22.58;;;8.50;;
76749;SDS011;66447;35.844;14.468;2023-04-01T00:34:07;22.75;;;7.97;;
76749;SDS011;66447;35.844;14.468;2023-04-01T01:04:31;17.33;;;6.10;;
76749;SDS011;66447;35.844;14.468;2023-04-01T01:19:52;13.40;;;4.38;;
76749;SDS011;66447;35.844;14.468;2023-04-01T01:50:10;17.50;;;5.28;;
76749;SDS011;66447;35.844;14.468;2023-04-01T02:05:14;18.90;;;4.40;;
76749;SDS011;66447;35.844;14.468;2023-04-01T02:20:22;17.05;;;3.97;;
76749;SDS011;66447;35.844;14.468;2023-04-01T02:35:24;16.02;;;3.58;;
76749;SDS011;66447;35.844;14.468;2023-04-01T02:50:26;14.85;;;3.70;;
76749;SDS011;66447;35.844;14.468;2023-04-01T03:05:27;13.63;;;3.80;;
76749;SDS011;66447;35.844;14.468;2023-04-01T03:20:29;15.75;;;3.42;;
76749;SDS011;66447;35.844;14.468;2023-04-01T03:35:31;39.55;;;5.18;;
76749;SDS011;66447;35.844;14.468;2023-04-01T03:50:33;22.02;;;3.17;;
76749;SDS011;66447;35.844;14.468;2023-04-01T04:05:35;12.88;;;3.38;;
76749;SDS011;66447;35.844;14.468;2023-04-01T04:20:37;21.38;;;4.25;;
76749;SDS011;66447;35.844;14.468;2023-04-01T04:35:51;19.70;;;5.22;;
76749;SDS011;66447;35.844;14.468;2023-04-01T04:50:55;13.13;;;4.68;;
76749;SDS011;66447;35.844;14.468;2023-04-01T05:05:56;19.83;;;4.35;;
76749;SDS011;66447;35.844;14.468;2023-04-01T05:20:58;16.15;;;3.72;;
76749;SDS011;66447;35.844;14.468;2023-04-01T05:36:07;23.05;;;5.10;;
76749;SDS011;66447;35.844;14.468;2023-04-01T05:51:14;16.80;;;5.53;;
76749;SDS011;66447;35.844;14.468;2023-04-01T06:06:23;12.23;;;3.20;;
76749;SDS011;66447;35.844;14.468;2023-04-01T06:37:10;27.13;;;4.37;;
76749;SDS011;66447;35.844;14.468;2023-04-01T07:08:21;12.55;;;4.18;;
76749;SDS011;66447;35.844;14.468;2023-04-01T07:23:32;16.63;;;2.88;;
76749;SDS011;66447;35.844;14.468;2023-04-01T07:38:46;16.90;;;3.00;;
76749;SDS011;66447;35.844;14.468;2023-04-01T07:54:08;8.57;;;2.70;;
76749;SDS011;66447;35.844;14.468;2023-04-01T08:09:44;16.30;;;3.00;;
76749;SDS011;66447;35.844;14.468;2023-04-01T08:24:46;11.93;;;3.03;;
76749;SDS011;66447;35.844;14.468;2023-04-01T08:39:50;23.53;;;4.17;;
76749;SDS011;66447;35.844;14.468;2023-04-01T09:10:24;13.53;;;2.63;;
76749;SDS011;66447;35.844;14.468;2023-04-01T09:41:32;12.47;;;2.80;;
76749;SDS011;66447;35.844;14.468;2023-04-01T09:57:00;8.97;;;2.23;;
76749;SDS011;66447;35.844;14.468;2023-04-01T11:29:30;13.03;;;3.03;;
76749;SDS011;66447;35.844;14.468;2023-04-01T11:44:43;9.73;;;2.90;;
76749;SDS011;66447;35.844;14.468;2023-04-01T12:15:35;13.47;;;3.10;;
76749;SDS011;66447;35.844;14.468;2023-04-01T13:02:20;14.17;;;2.70;;
76749;SDS011;66447;35.844;14.468;2023-04-01T13:17:31;10.30;;;2.87;;
76749;SDS011;66447;35.844;14.468;2023-04-01T13:32:43;10.23;;;2.37;;
76749;SDS011;66447;35.844;14.468;2023-04-01T14:03:27;6.30;;;1.90;;
76749;SDS011;66447;35.844;14.468;2023-04-01T14:49:41;7.43;;;2.60;;
76749;SDS011;66447;35.844;14.468;2023-04-01T15:04:50;11.37;;;2.43;;
76749;SDS011;66447;35.844;14.468;2023-04-01T15:35:31;18.70;;;5.70;;
76749;SDS011;66447;35.844;14.468;2023-04-01T15:51:07;29.67;;;8.47;;
76749;SDS011;66447;35.844;14.468;2023-04-01T16:21:41;31.40;;;10.60;;
76749;SDS011;66447;35.844;14.468;2023-04-01T16:37:10;29.17;;;13.07;;
76749;SDS011;66447;35.844;14.468;2023-04-01T17:38:12;32.08;;;9.30;;
76749;SDS011;66447;35.844;14.468;2023-04-01T17:53:32;29.67;;;8.23;;
76749;SDS011;66447;35.844;14.468;2023-04-01T18:39:30;26.20;;;8.40;;
76749;SDS011;66447;35.844;14.468;2023-04-01T18:54:47;23.15;;;7.38;;
76749;SDS011;66447;35.844;14.468;2023-04-01T19:10:15;30.05;;;9.90;;
76749;SDS011;66447;35.844;14.468;2023-04-01T19:25:29;30.55;;;10.55;;
76749;SDS011;66447;35.844;14.468;2023-04-01T19:40:38;35.00;;;11.30;;
76749;SDS011;66447;35.844;14.468;2023-04-01T19:55:53;28.77;;;10.10;;
76749;SDS011;66447;35.844;14.468;2023-04-01T20:26:27;24.00;;;9.10;;
76749;SDS011;66447;35.844;14.468;2023-04-01T21:59:30;12.00;;;3.88;;
76749;SDS011;66447;35.844;14.468;2023-04-01T23:01:14;13.35;;;3.63;;
76749;SDS011;66447;35.844;14.468;2023-04-01T23:16:23;10.82;;;3.35;;
76749;SDS011;66447;35.844;14.468;2023-04-01T23:31:32;12.15;;;3.63;;
76749;SDS011;66447;35.844;14.468;2023-04-01T23:46:34;12.63;;;3.65;;
